createdAt,value
2023-03-18T00:00:24.000Z,8.79
2023-03-18T00:05:18.000Z,8.79
2023-03-18T00:10:10.000Z,8.82
2023-03-18T00:15:04.000Z,8.62
2023-03-18T00:19:58.000Z,8.68
2023-03-18T00:24:53.000Z,8.72
2023-03-18T00:29:47.000Z,8.91
2023-03-18T00:34:41.000Z,8.95
2023-03-18T00:39:36.000Z,8.96
2023-03-18T00:44:29.000Z,8.98
2023-03-18T00:49:24.000Z,9.03
2023-03-18T00:54:18.000Z,9.06
2023-03-18T00:59:12.000Z,9.04
2023-03-18T01:04:06.000Z,9.05
2023-03-18T01:09:00.000Z,9.06
2023-03-18T01:13:54.000Z,8.95
2023-03-18T01:18:48.000Z,8.98
2023-03-18T01:23:42.000Z,8.99
2023-03-18T01:28:36.000Z,8.97
2023-03-18T01:33:28.000Z,8.9
2023-03-18T01:38:22.000Z,8.92
2023-03-18T01:43:16.000Z,8.94
2023-03-18T01:48:08.000Z,9.01
2023-03-18T01:53:02.000Z,8.99
2023-03-18T01:57:56.000Z,8.97
2023-03-18T02:02:49.000Z,9.03
2023-03-18T02:07:45.000Z,9.13
2023-03-18T02:12:36.000Z,9.11
2023-03-18T02:17:28.000Z,9
2023-03-18T02:22:22.000Z,8.88
2023-03-18T02:27:15.000Z,8.75
2023-03-18T02:32:10.000Z,8.71
2023-03-18T02:37:03.000Z,8.91
2023-03-18T02:41:58.000Z,8.92
2023-03-18T02:46:52.000Z,8.9
2023-03-18T02:51:46.000Z,8.84
2023-03-18T02:56:40.000Z,8.74
2023-03-18T03:01:34.000Z,8.68
2023-03-18T03:06:28.000Z,8.52
2023-03-18T03:11:23.000Z,8.6
2023-03-18T03:16:17.000Z,8.48
2023-03-18T03:21:10.000Z,8.37
2023-03-18T03:26:04.000Z,8.17
2023-03-18T03:30:58.000Z,8.02
2023-03-18T03:35:52.000Z,8.19
2023-03-18T03:40:46.000Z,8.04
2023-03-18T03:45:40.000Z,7.76
2023-03-18T03:50:31.000Z,7.89
2023-03-18T03:55:23.000Z,7.83
2023-03-18T04:00:16.000Z,7.73
2023-03-18T04:05:10.000Z,7.62
2023-03-18T04:10:06.000Z,7.54
2023-03-18T04:14:56.000Z,7.34
2023-03-18T04:19:50.000Z,7.22
2023-03-18T04:24:45.000Z,7.11
2023-03-18T04:29:39.000Z,6.88
2023-03-18T04:34:33.000Z,6.8
2023-03-18T04:39:27.000Z,6.73
2023-03-18T04:44:20.000Z,6.75
2023-03-18T04:49:14.000Z,6.9
2023-03-18T04:54:07.000Z,6.79
2023-03-18T04:59:02.000Z,6.64
2023-03-18T05:03:59.000Z,6.73
2023-03-18T05:08:51.000Z,6.58
2023-03-18T05:13:45.000Z,6.49
2023-03-18T05:18:38.000Z,6.85
2023-03-18T05:23:32.000Z,7.09
2023-03-18T05:28:26.000Z,6.96
2023-03-18T05:33:22.000Z,6.85
2023-03-18T05:38:09.000Z,7.23
2023-03-18T05:43:03.000Z,7.32
2023-03-18T05:47:57.000Z,7.44
2023-03-18T05:52:52.000Z,7.19
2023-03-18T05:57:46.000Z,7.26
2023-03-18T06:02:40.000Z,6.95
2023-03-18T06:07:32.000Z,6.96
2023-03-18T06:12:26.000Z,6.97
2023-03-18T06:17:20.000Z,7.46
2023-03-18T06:22:13.000Z,7.55
2023-03-18T06:27:10.000Z,7.59
2023-03-18T06:31:59.000Z,7.68
2023-03-18T06:36:53.000Z,7.75
2023-03-18T06:41:47.000Z,7.93
2023-03-18T06:46:41.000Z,8.04
2023-03-18T06:51:34.000Z,8.07
2023-03-18T06:56:28.000Z,8.18
2023-03-18T07:01:22.000Z,8.3
2023-03-18T07:06:16.000Z,8.41
2023-03-18T07:11:10.000Z,8.54
2023-03-18T07:16:04.000Z,8.72
2023-03-18T07:20:57.000Z,9.02
2023-03-18T07:25:51.000Z,9.22
2023-03-18T07:30:44.000Z,9.49
2023-03-18T07:35:38.000Z,9.84
2023-03-18T07:40:33.000Z,10.21
2023-03-18T07:45:26.000Z,10.39
2023-03-18T07:50:23.000Z,10.3
2023-03-18T07:55:13.000Z,10.51
2023-03-18T08:00:06.000Z,10.64
2023-03-18T08:05:00.000Z,10.93
2023-03-18T08:09:54.000Z,11.05
2023-03-18T08:14:48.000Z,11.2
2023-03-18T08:19:42.000Z,11.56
2023-03-18T08:24:36.000Z,11.79
2023-03-18T08:29:31.000Z,11.77
2023-03-18T08:34:25.000Z,11.74
2023-03-18T08:39:19.000Z,11.8
2023-03-18T08:44:13.000Z,12.01
2023-03-18T08:49:08.000Z,12.44
2023-03-18T08:54:02.000Z,12.14
2023-03-18T08:58:56.000Z,12.56
2023-03-18T09:03:50.000Z,12.96
2023-03-18T09:08:44.000Z,13.26
2023-03-18T09:13:39.000Z,14.66
2023-03-18T09:18:34.000Z,16.58
2023-03-18T09:23:29.000Z,17.15
2023-03-18T09:28:24.000Z,17.01
2023-03-18T09:33:17.000Z,15.32
2023-03-18T09:38:12.000Z,16.08
2023-03-18T09:43:06.000Z,15.53
2023-03-18T09:48:00.000Z,16.2
2023-03-18T09:52:54.000Z,16.73
2023-03-18T09:57:49.000Z,16.7
2023-03-18T10:02:44.000Z,17.14
2023-03-18T10:07:38.000Z,17.48
2023-03-18T10:12:33.000Z,17.51
2023-03-18T10:17:28.000Z,17.35
2023-03-18T10:22:23.000Z,17.07
2023-03-18T10:27:17.000Z,17.78
2023-03-18T10:32:11.000Z,16.35
2023-03-18T10:37:04.000Z,15.95
2023-03-18T10:41:58.000Z,16.54
2023-03-18T10:46:53.000Z,17.52
2023-03-18T10:51:47.000Z,15.42
2023-03-18T10:56:41.000Z,15.55
2023-03-18T11:01:34.000Z,16.53
2023-03-18T11:06:28.000Z,16.64
2023-03-18T11:11:22.000Z,17.07
2023-03-18T11:16:17.000Z,17.27
2023-03-18T11:21:12.000Z,20.37
2023-03-18T11:26:08.000Z,21
2023-03-18T11:31:04.000Z,19.05
2023-03-18T11:35:57.000Z,19.79
2023-03-18T11:40:52.000Z,21.06
2023-03-18T11:45:48.000Z,21.17
2023-03-18T11:50:42.000Z,22.01
2023-03-18T11:55:40.000Z,22.09
2023-03-18T12:00:33.000Z,19.17
2023-03-18T12:05:21.000Z,17.34
2023-03-18T12:10:14.000Z,16.41
2023-03-18T12:15:10.000Z,16.94
2023-03-18T12:20:01.000Z,16.7
2023-03-18T12:24:53.000Z,17.55
2023-03-18T12:29:45.000Z,16.86
2023-03-18T12:34:40.000Z,19.22
2023-03-18T12:39:37.000Z,20.03
2023-03-18T12:44:34.000Z,20.32
2023-03-18T12:49:21.000Z,20.32
2023-03-18T12:54:15.000Z,20.15
2023-03-18T12:59:09.000Z,19.49
2023-03-18T13:04:01.000Z,18.01
2023-03-18T13:08:54.000Z,17.55
2023-03-18T13:13:48.000Z,17.06
2023-03-18T13:18:42.000Z,17.89
2023-03-18T13:23:36.000Z,17.23
2023-03-18T13:28:29.000Z,17.3
2023-03-18T13:33:23.000Z,16.97
2023-03-18T13:38:19.000Z,16.18
2023-03-18T13:43:10.000Z,16.21
2023-03-18T13:48:06.000Z,16.23
2023-03-18T13:52:57.000Z,16.8
2023-03-18T13:57:51.000Z,17.06
2023-03-18T14:02:46.000Z,17.86
2023-03-18T14:07:39.000Z,18.66
2023-03-18T14:12:37.000Z,17.52
2023-03-18T14:17:28.000Z,17.7
2023-03-18T14:22:25.000Z,17.99
2023-03-18T14:27:16.000Z,17.59
2023-03-18T14:32:10.000Z,17.06
2023-03-18T14:37:05.000Z,16.69
2023-03-18T14:42:01.000Z,17.13
2023-03-18T14:46:51.000Z,16.86
2023-03-18T14:51:43.000Z,16.43
2023-03-18T14:56:37.000Z,16.77
2023-03-18T15:01:31.000Z,17.44
2023-03-18T15:06:25.000Z,17.73
2023-03-18T15:11:22.000Z,19.19
2023-03-18T15:16:11.000Z,22.95
2023-03-18T15:21:11.000Z,24.04
2023-03-18T15:26:03.000Z,21.23
2023-03-18T15:30:57.000Z,17.22
2023-03-18T15:35:50.000Z,17.29
2023-03-18T15:40:42.000Z,17.29
2023-03-18T15:45:33.000Z,16.73
2023-03-18T15:50:24.000Z,16.68
2023-03-18T15:55:18.000Z,16.73
2023-03-18T16:00:11.000Z,16.78
2023-03-18T16:05:06.000Z,16.53
2023-03-18T16:09:58.000Z,16.62
2023-03-18T16:14:55.000Z,16.7
2023-03-18T16:19:46.000Z,18.84
2023-03-18T16:24:39.000Z,20.93
2023-03-18T16:29:34.000Z,20.9
2023-03-18T16:34:27.000Z,20.51
2023-03-18T16:39:21.000Z,17.98
2023-03-18T16:44:14.000Z,18.64
2023-03-18T16:49:08.000Z,19.98
2023-03-18T16:54:04.000Z,17.73
2023-03-18T16:58:55.000Z,16.23
2023-03-18T17:03:46.000Z,16.42
2023-03-18T17:08:41.000Z,15.72
2023-03-18T17:13:31.000Z,15.82
2023-03-18T17:18:25.000Z,15.4
2023-03-18T17:23:19.000Z,15.09
2023-03-18T17:28:13.000Z,14.85
2023-03-18T17:33:08.000Z,14.56
2023-03-18T17:38:02.000Z,14.44
2023-03-18T17:42:56.000Z,14.21
2023-03-18T17:47:50.000Z,13.89
2023-03-18T17:52:45.000Z,13.61
2023-03-18T17:57:38.000Z,13.38
2023-03-18T18:02:32.000Z,13.03
2023-03-18T18:07:26.000Z,12.63
2023-03-18T18:12:21.000Z,12.27
2023-03-18T18:17:14.000Z,11.98
2023-03-18T18:22:08.000Z,11.71
2023-03-18T18:27:03.000Z,11.53
2023-03-18T18:31:56.000Z,11.32
2023-03-18T18:36:51.000Z,11.18
2023-03-18T18:41:45.000Z,11.05
2023-03-18T18:46:39.000Z,10.95
2023-03-18T18:51:33.000Z,10.74
2023-03-18T18:56:27.000Z,10.58
2023-03-18T19:01:22.000Z,10.38
2023-03-18T19:06:16.000Z,10.16
2023-03-18T19:11:08.000Z,10.05
2023-03-18T19:16:03.000Z,9.99
2023-03-18T19:20:57.000Z,10.01
2023-03-18T19:25:51.000Z,9.94
2023-03-18T19:30:45.000Z,9.87
2023-03-18T19:35:40.000Z,9.82
2023-03-18T19:40:31.000Z,9.82
2023-03-18T19:45:25.000Z,9.8
2023-03-18T19:50:20.000Z,9.72
2023-03-18T19:55:12.000Z,9.66
2023-03-18T20:00:06.000Z,9.62
2023-03-18T20:05:00.000Z,9.54
2023-03-18T20:09:53.000Z,9.51
2023-03-18T20:14:47.000Z,9.53
2023-03-18T20:19:41.000Z,9.59
2023-03-18T20:24:34.000Z,9.63
2023-03-18T20:29:26.000Z,9.42
2023-03-18T20:34:19.000Z,9.4
2023-03-18T20:39:14.000Z,9.42
2023-03-18T20:44:08.000Z,9.44
2023-03-18T20:49:02.000Z,9.57
2023-03-18T20:53:54.000Z,9.67
2023-03-18T20:58:48.000Z,9.74
2023-03-18T21:03:42.000Z,9.85
2023-03-18T21:08:36.000Z,9.91
2023-03-18T21:13:30.000Z,9.95
2023-03-18T21:18:24.000Z,10.06
2023-03-18T21:23:18.000Z,10.07
2023-03-18T21:28:11.000Z,10.09
2023-03-18T21:33:05.000Z,10.11
2023-03-18T21:37:59.000Z,10.06
2023-03-18T21:42:54.000Z,10.07
2023-03-18T21:47:51.000Z,9.98
2023-03-18T21:52:41.000Z,10
2023-03-18T21:57:35.000Z,10.02
2023-03-18T22:02:29.000Z,10.02
2023-03-18T22:07:23.000Z,10.02
2023-03-18T22:12:16.000Z,10.02
2023-03-18T22:17:11.000Z,10.06
2023-03-18T22:22:05.000Z,10.42
2023-03-18T22:26:59.000Z,10.53
2023-03-18T22:31:53.000Z,10.36
2023-03-18T22:36:48.000Z,10.26
2023-03-18T22:41:42.000Z,10.2
2023-03-18T22:46:36.000Z,10.22
2023-03-18T22:51:30.000Z,10.24
2023-03-18T22:56:24.000Z,10.45
2023-03-18T23:01:18.000Z,10.87
2023-03-18T23:06:10.000Z,10.94
2023-03-18T23:11:04.000Z,10.73
2023-03-18T23:15:58.000Z,10.53
2023-03-18T23:20:52.000Z,10.58
2023-03-18T23:25:46.000Z,10.66
2023-03-18T23:30:40.000Z,10.52
2023-03-18T23:35:34.000Z,10.33
2023-03-18T23:40:29.000Z,10.35
2023-03-18T23:45:22.000Z,10.45
2023-03-18T23:50:16.000Z,10.38
2023-03-18T23:55:09.000Z,10.34
